• Join FlightAware (Why Join?)
  • Login
  • US Flag 
02:44AM EDT


 

Airport Tracker/Info


-or-


 

Live Flight TrackerFlight Track Log ✈ GJS3710 ✈ 10-Jun-2013 ✈ KORD - KALB

Flight Track Log - Related Links

Times and Time Zones

All times are in EDT time to prevent confusion due to time zone crossing. See the GJS3710 flight status page for this flight to view local times or setup timezone preferences in your user account.

Time Position Orientation Groundspeed Altitude Reporting Facility
EDT Latitude Longitude Course Direction KTS MPH feet Rate Location/Type
08:08PM 41.9667 -87.8333 86° East 196 226 2,600  Level Chicago TRACON
08:09PM 41.9611 -87.7817 98° East 203 234 4,200 1,380 Climbing Chicago Center
08:10PM 41.9606 -87.6828 90° East 232 267 5,000 1,200 Climbing Chicago Center
08:11PM 42.0025 -87.5964 57° Northeast 268 308 6,800 2,040 Climbing Chicago Center
08:12PM 42.0472 -87.5100 55° Northeast 277 319 9,300 2,400 Climbing Chicago Center
08:13PM 42.2546 -87.0863 66° East  Level FlightAware Approximate
08:13PM 42.0933 -87.4236 54° Northeast 284 327 11,800  Level Chicago Center
08:14PM 42.2696 -86.9392 86° East  Level FlightAware Approximate
08:14PM 42.1519 -87.3100 55° Northeast 303 349 13,900  Level Chicago Center
08:15PM 42.2078 -87.2039 55° Northeast 335 386 15,100 1,140 Climbing Chicago Center
08:16PM 42.2661 -87.0856 56° Northeast 371 427 16,300 1,200 Climbing Chicago Center
08:17PM 42.2839 -86.9342 81° East 403 464 17,600 1,320 Climbing Chicago Center
08:18PM 42.2894 -86.7742 87° East 423 487 19,100 1,320 Climbing Chicago Center
08:19PM 42.2967 -86.6039 87° East 431 496 20,400 1,200 Climbing Chicago Center
08:20PM 42.3036 -86.4111 87° East 447 514 21,600 960 Climbing Chicago Center
08:21PM 42.3100 -86.2406 87° East 458 527 22,500 960 Climbing Chicago Center
08:22PM 42.3156 -86.0661 87° East 466 536 23,600 960 Climbing Chicago Center
08:23PM 42.3131 -85.8881 91° East 475 547 24,600 960 Climbing Chicago Center
08:25PM 42.3100 -85.7103 91° East 478 550 25,600 1,020 Climbing Chicago Center
08:26PM 42.3081 -85.4925 91° East 485 558 26,800 1,020 Climbing Chicago Center
08:27PM 42.3044 -85.3128 91° East 484 557 27,800 960 Climbing Chicago Center
08:28PM 42.3022 -85.1311 91° East 485 558 28,800 960 Climbing Chicago Center
08:29PM 42.2983 -84.9522 92° East 480 552 29,800 960 Climbing Chicago Center
08:30PM 42.2950 -84.7733 91° East 479 551 30,800 1,020 Climbing Chicago Center
08:31PM 42.2894 -84.5619 92° East 472 543 32,000 1,020 Climbing Chicago Center
08:32PM 42.2892 -84.3881 90° East 466 536 33,000 720 Climbing Chicago Center
08:32PM 42.2864 -84.3361 94° East 468 539 33,000 540 Level Cleveland Center
08:33PM 42.2878 -84.1592 89° East 463 533 33,700 840 Climbing Cleveland Center
08:34PM 42.2908 -83.9881 89° East 458 527 34,700 900 Climbing Cleveland Center
08:35PM 42.2981 -83.8172 87° East 458 527 35,600 720 Climbing Cleveland Center
08:36PM 42.3108 -83.6494 84° East 458 527 36,200 600 Climbing Cleveland Center
08:37PM 42.3258 -83.4731 83° East 458 527 36,800 600 Climbing Cleveland Center
08:38PM 42.3383 -83.3053 84° East 452 520 37,400 540 Climbing Cleveland Center
08:39PM 42.3525 -83.1456 83° East 459 528 37,900 540 Climbing Cleveland Center
08:40PM 42.3664 -82.9803 83° East 459 528 38,500 480 Climbing Cleveland Center
08:41PM 42.3781 -82.8150 84° East 447 514 38,900 240 Climbing Cleveland Center
08:42PM 42.3917 -82.6467 84° East 442 509 39,000  Climbing Cleveland Center
08:43PM 42.4050 -82.4783 84° East 442 509 39,000  Level Cleveland Center
08:44PM 42.4181 -82.3044 84° East 447 514 39,000  Level Cleveland Center
08:45PM 42.4308 -82.1389 84° East 447 514 39,000  Level Cleveland Center
08:46PM 42.4478 -81.9675 82° East 454 522 39,000  Level Cleveland Center
08:47PM 42.4603 -81.7819 85° East 454 522 39,000  Level Cleveland Center
08:48PM 42.4700 -81.6247 85° East 460 529 39,000  Level Cleveland Center
08:49PM 42.4839 -81.4558 84° East 454 522 39,000  Level Cleveland Center
08:50PM 42.4956 -81.2786 85° East 465 535 39,000  Level Cleveland Center
08:51PM 42.5069 -81.0931 85° East 460 529 39,000  Level Cleveland Center
08:52PM 42.5161 -80.9183 86° East 460 529 39,000  Level Cleveland Center
08:53PM 42.5289 -80.7439 84° East 460 529 39,000  Level Cleveland Center
08:54PM 42.5394 -80.5719 85° East 460 529 39,000 -420 Level Cleveland Center
08:55PM 42.5497 -80.4000 85° East 460 529 38,200 -900 Descending Cleveland Center
08:56PM 42.5617 -80.2194 85° East 466 536 37,200 -600 Descending Cleveland Center
08:57PM 42.5694 -80.0333 87° East 478 550 37,000 -120 Descending Cleveland Center
08:58PM 42.5850 -79.8500 83° East 478 550 37,000  Level Cleveland Center
08:59PM 42.5919 -79.6639 87° East 483 556 37,000  Level Cleveland Center
09:00PM 42.6031 -79.4803 85° East 483 556 37,000  Level Cleveland Center
09:01PM 42.6136 -79.2939 86° East 483 556 37,000 -180 Level Cleveland Center
09:02PM 42.6197 -79.1075 87° East 488 562 36,700 -660 Descending Cleveland Center
09:03PM 42.6297 -78.9211 86° East 493 567 35,700 -1,020 Descending Cleveland Center
09:04PM 42.6372 -78.7347 87° East 493 567 34,700 -1,020 Descending Cleveland Center
09:05PM 42.6444 -78.5481 87° East 498 573 33,700 -1,020 Descending Cleveland Center
09:06PM 42.6536 -78.3614 86° East 498 573 32,700 -1,020 Descending Cleveland Center
09:07PM 42.6603 -78.1775 87° East 498 573 31,700 -900 Descending Cleveland Center
09:08PM 42.6667 -77.9911 87° East 498 573 31,000 -360 Descending Cleveland Center
09:09PM 42.6750 -77.8072 86° East 493 567 31,000 -300 Level Cleveland Center
09:10PM 42.6806 -77.6203 88° East 493 567 30,500 -660 Descending Cleveland Center
09:11PM 42.6872 -77.4703 86° East 498 573 29,700 -600 Descending Cleveland Center
09:13PM 42.6964 -77.1050 88° East 508 585 29,000 -480 Descending Boston Center
09:14PM 42.7017 -76.9272 88° East 494 568 28,400 -540 Descending Boston Center
09:15PM 42.7064 -76.7494 88° East 472 543 28,000 -300 Descending Boston Center
09:16PM 42.7108 -76.5747 88° East 466 536 27,800 -900 Descending Boston Center
09:17PM 42.7150 -76.3967 88° East 466 536 26,300 -1,620 Descending Boston Center
09:18PM 42.7208 -76.2247 87° East 460 529 24,600 -1,200 Descending Boston Center
09:19PM 42.7244 -76.0525 88° East 455 524 24,000 -300 Descending Boston Center
09:20PM 42.7278 -75.8744 88° East 460 529 24,000  Level Boston Center
09:21PM 42.7322 -75.6569 88° East 467 537 24,000 -180 Level Boston Center
09:22PM 42.7350 -75.4761 89° East 473 544 23,700 -1,320 Descending Boston Center
09:23PM 42.7206 -75.3114 97° East 467 537 21,400 -2,280 Descending Boston Center
09:24PM 42.6869 -75.1547 106° East 443 510 19,200 -2,220 Descending Boston Center
09:25PM 42.6606 -75.0378 107° East 443 510 17,500 -2,220 Descending Boston Center
09:26PM 42.6228 -74.8556 106° East 418 481 14,800 -2,280 Descending Boston Center
09:27PM 42.5942 -74.7217 106° East 398 458 12,800 -2,040 Descending Boston Center
09:28PM 42.5656 -74.5825 106° East 383 441 11,000 -1,080 Descending Boston Center
09:29PM 42.5761 -74.4617 83° East 320 368 10,700 -840 Descending Boston Center
09:30PM 42.6278 -74.3731 52° Northeast 284 327 9,400 -1,380 Descending Boston Center
09:31PM 42.6731 -74.2869 54° Northeast 281 323 8,000 -1,440 Descending Boston Center
09:32PM 42.7222 -74.1981 53° Northeast 274 315 6,500 -1,380 Descending Boston Center
09:33PM 42.7672 -74.1172 53° Northeast 268 308 5,200 -1,200 Descending Boston Center
09:34PM 42.8103 -74.0392 53° Northeast 250 288 4,200 -900 Descending Boston Center
09:36PM 42.7333 -73.8000 82° East  Level FlightAware Approximate
09:36PM 42.8864 -73.9447 82° East 203 234 2,500  Level Boston Center
09:37PM 42.9144 -73.8717 62° Northeast 185 213 2,000 -300 Descending Boston Center
09:38PM 42.8839 -73.8200 129° Southeast 149 171 2,000  Level Boston Center